sensor_id;sensor_type;location;lat;lon;timestamp;P1;P2;P0
45112;PMS5003;30873;53.908;27.576;2022-07-01T00:03:50;21.9;20.7;14.9
45112;PMS5003;30873;53.908;27.576;2022-07-01T00:08:50;23.9;21.8;15.5
45112;PMS5003;30873;53.908;27.576;2022-07-01T00:13:50;24.1;22.3;15.3
45112;PMS5003;30873;53.908;27.576;2022-07-01T00:18:50;23.7;21.5;15.6
45112;PMS5003;30873;53.908;27.576;2022-07-01T00:23:50;23.1;21.9;15.4
45112;PMS5003;30873;53.908;27.576;2022-07-01T00:28:50;24.2;22.2;15.3
45112;PMS5003;30873;53.908;27.576;2022-07-01T00:33:50;23.8;21.6;15.3
45112;PMS5003;30873;53.908;27.576;2022-07-01T00:38:50;23.9;22.2;16.4
45112;PMS5003;30873;53.908;27.576;2022-07-01T00:43:50;23.4;22.3;15.8
45112;PMS5003;30873;53.908;27.576;2022-07-01T00:48:50;25.3;22.5;16
45112;PMS5003;30873;53.908;27.576;2022-07-01T00:53:50;24.6;22.9;15.8
45112;PMS5003;30873;53.908;27.576;2022-07-01T00:58:50;24.4;22;15.7
45112;PMS5003;30873;53.908;27.576;2022-07-01T01:03:50;23.9;22.3;15.4
45112;PMS5003;30873;53.908;27.576;2022-07-01T01:08:50;24.6;22.8;16.2
45112;PMS5003;30873;53.908;27.576;2022-07-01T01:13:50;24.8;22.5;16.1
45112;PMS5003;30873;53.908;27.576;2022-07-01T01:18:50;24.5;23.4;15.8
45112;PMS5003;30873;53.908;27.576;2022-07-01T01:23:50;25.7;23.8;16.1
45112;PMS5003;30873;53.908;27.576;2022-07-01T01:28:50;29.5;27.5;18.8
45112;PMS5003;30873;53.908;27.576;2022-07-01T01:33:50;32.7;30.5;21.4
45112;PMS5003;30873;53.908;27.576;2022-07-01T01:38:50;30.1;27.9;19.9
45112;PMS5003;30873;53.908;27.576;2022-07-01T01:43:50;28.1;26.8;18.4
45112;PMS5003;30873;53.908;27.576;2022-07-01T01:48:50;28.8;25.9;18
45112;PMS5003;30873;53.908;27.576;2022-07-01T01:53:50;26.2;24.8;17.3
45112;PMS5003;30873;53.908;27.576;2022-07-01T01:58:50;28.2;25.8;17.7
45112;PMS5003;30873;53.908;27.576;2022-07-01T02:03:50;27.2;24.8;17.3
45112;PMS5003;30873;53.908;27.576;2022-07-01T02:08:50;26.8;24.8;17.1
45112;PMS5003;30873;53.908;27.576;2022-07-01T02:13:50;27.7;25.4;17.3
45112;PMS5003;30873;53.908;27.576;2022-07-01T02:18:50;28;26.3;17.9
45112;PMS5003;30873;53.908;27.576;2022-07-01T02:23:50;27;25.1;17.8
45112;PMS5003;30873;53.908;27.576;2022-07-01T02:28:50;27.5;25.7;17.4
45112;PMS5003;30873;53.908;27.576;2022-07-01T02:33:50;26.9;25;17.6
45112;PMS5003;30873;53.908;27.576;2022-07-01T02:38:50;27.8;27;19.7
45112;PMS5003;30873;53.908;27.576;2022-07-01T02:43:50;27.6;25.7;17.9
45112;PMS5003;30873;53.908;27.576;2022-07-01T02:48:50;27.4;25.2;18
45112;PMS5003;30873;53.908;27.576;2022-07-01T02:53:50;27.8;26.4;18.3
45112;PMS5003;30873;53.908;27.576;2022-07-01T02:58:50;29.1;27.1;19
45112;PMS5003;30873;53.908;27.576;2022-07-01T03:03:50;30.3;28;19.1
45112;PMS5003;30873;53.908;27.576;2022-07-01T03:08:50;28.9;26.8;19
45112;PMS5003;30873;53.908;27.576;2022-07-01T03:13:50;29;27.6;19.5
45112;PMS5003;30873;53.908;27.576;2022-07-01T03:18:50;28.7;26.6;19
45112;PMS5003;30873;53.908;27.576;2022-07-01T03:23:50;31.4;29.2;20.5
45112;PMS5003;30873;53.908;27.576;2022-07-01T03:28:50;31.2;28.8;20.5
45112;PMS5003;30873;53.908;27.576;2022-07-01T03:33:50;29.8;28.3;20.1
45112;PMS5003;30873;53.908;27.576;2022-07-01T03:38:50;30.6;28.5;19.8
45112;PMS5003;30873;53.908;27.576;2022-07-01T03:43:50;31.4;28.7;20.5
45112;PMS5003;30873;53.908;27.576;2022-07-01T03:48:50;29;27.9;20.5
45112;PMS5003;30873;53.908;27.576;2022-07-01T03:53:50;30.3;28.4;19.6
45112;PMS5003;30873;53.908;27.576;2022-07-01T03:58:50;28.7;26.5;18.5
45112;PMS5003;30873;53.908;27.576;2022-07-01T04:03:50;28.3;26.2;18.3
45112;PMS5003;30873;53.908;27.576;2022-07-01T04:08:50;28.4;25.9;18.1
45112;PMS5003;30873;53.908;27.576;2022-07-01T04:13:50;29.4;26.9;19.1
45112;PMS5003;30873;53.908;27.576;2022-07-01T04:18:50;22.7;21.1;16.1
45112;PMS5003;30873;53.908;27.576;2022-07-01T04:23:50;20.5;18.7;13.5
45112;PMS5003;30873;53.908;27.576;2022-07-01T04:28:50;18;16.3;12.1
45112;PMS5003;30873;53.908;27.576;2022-07-01T04:33:50;16.3;15.9;11.8
45112;PMS5003;30873;53.908;27.576;2022-07-01T04:38:50;15.8;15;11.3
45112;PMS5003;30873;53.908;27.576;2022-07-01T04:43:50;15.2;13.6;10.2
45112;PMS5003;30873;53.908;27.576;2022-07-01T04:48:50;14.3;13.5;10.4
45112;PMS5003;30873;53.908;27.576;2022-07-01T04:53:50;14.9;13.8;10.3
45112;PMS5003;30873;53.908;27.576;2022-07-01T04:58:50;14.3;13.4;9.5
45112;PMS5003;30873;53.908;27.576;2022-07-01T05:03:50;14.8;13.9;10.3
45112;PMS5003;30873;53.908;27.576;2022-07-01T05:08:50;15.7;14.3;10.5
45112;PMS5003;30873;53.908;27.576;2022-07-01T05:13:50;15.8;14.8;10.5
45112;PMS5003;30873;53.908;27.576;2022-07-01T05:18:50;16.2;15.2;11.4
45112;PMS5003;30873;53.908;27.576;2022-07-01T05:23:50;15.8;15;11.4
45112;PMS5003;30873;53.908;27.576;2022-07-01T05:28:50;15.2;14.2;10.3
45112;PMS5003;30873;53.908;27.576;2022-07-01T05:33:50;17;16.1;12.5
45112;PMS5003;30873;53.908;27.576;2022-07-01T05:38:50;16.3;15.5;12
45112;PMS5003;30873;53.908;27.576;2022-07-01T05:43:50;16.1;15.7;11.9
45112;PMS5003;30873;53.908;27.576;2022-07-01T05:48:50;18.1;17;12.5
45112;PMS5003;30873;53.908;27.576;2022-07-01T05:53:50;15.1;14.5;10.7
45112;PMS5003;30873;53.908;27.576;2022-07-01T05:58:50;16.7;16;12.2
45112;PMS5003;30873;53.908;27.576;2022-07-01T06:03:50;15.7;14.7;11.2
45112;PMS5003;30873;53.908;27.576;2022-07-01T06:08:50;15.6;14.1;10.1
45112;PMS5003;30873;53.908;27.576;2022-07-01T06:13:50;14.9;14.5;11.2
45112;PMS5003;30873;53.908;27.576;2022-07-01T06:18:50;15.2;14.2;10.6
45112;PMS5003;30873;53.908;27.576;2022-07-01T06:23:50;14.6;13.7;10.5
45112;PMS5003;30873;53.908;27.576;2022-07-01T06:28:50;16.8;15.4;11.2
45112;PMS5003;30873;53.908;27.576;2022-07-01T06:33:50;14.5;13.9;10.4
45112;PMS5003;30873;53.908;27.576;2022-07-01T06:38:50;15.3;14.9;11
45112;PMS5003;30873;53.908;27.576;2022-07-01T06:43:50;16;14.5;10.7
45112;PMS5003;30873;53.908;27.576;2022-07-01T06:48:50;14.7;14.3;10.5
45112;PMS5003;30873;53.908;27.576;2022-07-01T06:53:50;15.4;14.8;11.3
45112;PMS5003;30873;53.908;27.576;2022-07-01T06:58:50;18.5;17.2;12.5
45112;PMS5003;30873;53.908;27.576;2022-07-01T07:03:50;16.5;15.3;11.5
45112;PMS5003;30873;53.908;27.576;2022-07-01T07:08:50;15.9;14.8;10.8
45112;PMS5003;30873;53.908;27.576;2022-07-01T07:13:50;16.1;15.1;11.3
45112;PMS5003;30873;53.908;27.576;2022-07-01T07:18:50;16.2;15.5;11.8
45112;PMS5003;30873;53.908;27.576;2022-07-01T07:23:50;17.3;15.4;11.6
45112;PMS5003;30873;53.908;27.576;2022-07-01T07:28:50;20;18.2;13.3
45112;PMS5003;30873;53.908;27.576;2022-07-01T07:33:50;16.3;15.7;11.8
45112;PMS5003;30873;53.908;27.576;2022-07-01T07:38:50;19.2;18.5;14
45112;PMS5003;30873;53.908;27.576;2022-07-01T07:43:50;22.2;20.6;15.1
45112;PMS5003;30873;53.908;27.576;2022-07-01T07:48:50;24.9;23.2;17.5
45112;PMS5003;30873;53.908;27.576;2022-07-01T07:53:50;22.8;21.6;15.7
45112;PMS5003;30873;53.908;27.576;2022-07-01T07:58:50;23.3;22.2;16
45112;PMS5003;30873;53.908;27.576;2022-07-01T08:03:50;24.4;23.4;16.7
45112;PMS5003;30873;53.908;27.576;2022-07-01T08:08:50;28.9;26.8;19.6
45112;PMS5003;30873;53.908;27.576;2022-07-01T08:13:50;28;25.6;18.5
45112;PMS5003;30873;53.908;27.576;2022-07-01T08:18:50;23.4;22.3;16.6
45112;PMS5003;30873;53.908;27.576;2022-07-01T08:23:50;25.5;23.8;17.6
45112;PMS5003;30873;53.908;27.576;2022-07-01T08:28:50;26.7;24.4;17.6
45112;PMS5003;30873;53.908;27.576;2022-07-01T08:33:50;23.5;22.6;16.8
45112;PMS5003;30873;53.908;27.576;2022-07-01T08:38:50;24.3;23;16.7
45112;PMS5003;30873;53.908;27.576;2022-07-01T08:43:50;26.6;24.8;18.1
45112;PMS5003;30873;53.908;27.576;2022-07-01T08:48:50;23.4;22.8;16.5
45112;PMS5003;30873;53.908;27.576;2022-07-01T08:53:50;26.5;24.3;17.5
45112;PMS5003;30873;53.908;27.576;2022-07-01T08:58:50;25.6;23.8;18.3
45112;PMS5003;30873;53.908;27.576;2022-07-01T09:03:51;24.6;22.7;16.7
45112;PMS5003;30873;53.908;27.576;2022-07-01T09:08:50;21.6;19.9;15.1
45112;PMS5003;30873;53.908;27.576;2022-07-01T09:14:06;21.3;20.2;14.6
45112;PMS5003;30873;53.908;27.576;2022-07-01T09:19:05;20.5;19.9;14.5
45112;PMS5003;30873;53.908;27.576;2022-07-01T09:23:50;21.3;20.4;15.1
45112;PMS5003;30873;53.908;27.576;2022-07-01T09:28:54;19.8;18.9;14
45112;PMS5003;30873;53.908;27.576;2022-07-01T09:34:05;19.5;18.7;13.9
45112;PMS5003;30873;53.908;27.576;2022-07-01T09:38:50;20.2;19.6;14.8
45112;PMS5003;30873;53.908;27.576;2022-07-01T09:43:50;20.4;19.7;14.3
45112;PMS5003;30873;53.908;27.576;2022-07-01T09:48:50;18.9;18.3;13.7
45112;PMS5003;30873;53.908;27.576;2022-07-01T09:53:50;20.2;19.1;14.5
45112;PMS5003;30873;53.908;27.576;2022-07-01T09:58:50;16;15.2;11.4
45112;PMS5003;30873;53.908;27.576;2022-07-01T10:03:50;15.9;15.7;11
45112;PMS5003;30873;53.908;27.576;2022-07-01T10:08:54;16.1;15.6;11.8
45112;PMS5003;30873;53.908;27.576;2022-07-01T10:13:50;16.9;16.2;12.3
45112;PMS5003;30873;53.908;27.576;2022-07-01T10:18:51;17.6;17;13
45112;PMS5003;30873;53.908;27.576;2022-07-01T10:23:50;17.7;17.1;13
45112;PMS5003;30873;53.908;27.576;2022-07-01T10:28:50;17.3;16.8;12.9
45112;PMS5003;30873;53.908;27.576;2022-07-01T10:33:54;15.7;15;11.7
45112;PMS5003;30873;53.908;27.576;2022-07-01T10:39:07;16.6;16.5;12.5
45112;PMS5003;30873;53.908;27.576;2022-07-01T10:43:50;18.7;17.8;14
45112;PMS5003;30873;53.908;27.576;2022-07-01T10:48:50;18.4;17.7;13.2
45112;PMS5003;30873;53.908;27.576;2022-07-01T10:53:50;15.9;15.5;11.6
45112;PMS5003;30873;53.908;27.576;2022-07-01T10:58:50;17.7;17.4;13.2
45112;PMS5003;30873;53.908;27.576;2022-07-01T11:03:50;19.1;18.4;13.8
45112;PMS5003;30873;53.908;27.576;2022-07-01T11:08:50;25.8;24.2;18.8
45112;PMS5003;30873;53.908;27.576;2022-07-01T11:13:50;24.2;22.8;16.5
45112;PMS5003;30873;53.908;27.576;2022-07-01T11:18:50;17.8;17.1;13
45112;PMS5003;30873;53.908;27.576;2022-07-01T11:23:53;16.2;15.9;11.9
45112;PMS5003;30873;53.908;27.576;2022-07-01T11:28:50;17.2;17;12.9
45112;PMS5003;30873;53.908;27.576;2022-07-01T11:33:50;16.8;16.1;12.7
45112;PMS5003;30873;53.908;27.576;2022-07-01T11:38:50;14.7;14.5;11.6
45112;PMS5003;30873;53.908;27.576;2022-07-01T11:43:50;16.7;16;12.4
45112;PMS5003;30873;53.908;27.576;2022-07-01T11:48:50;17.8;16.8;13
45112;PMS5003;30873;53.908;27.576;2022-07-01T11:53:51;17.8;17.5;13.5
45112;PMS5003;30873;53.908;27.576;2022-07-01T11:58:50;18.1;17.9;14.3
45112;PMS5003;30873;53.908;27.576;2022-07-01T12:03:50;18.5;18.1;14.2
45112;PMS5003;30873;53.908;27.576;2022-07-01T12:08:50;16.4;15.8;12.4
45112;PMS5003;30873;53.908;27.576;2022-07-01T12:13:50;16.8;16.3;12.7
45112;PMS5003;30873;53.908;27.576;2022-07-01T12:18:51;18.3;18.2;14.6
45112;PMS5003;30873;53.908;27.576;2022-07-01T12:24:04;17.2;16.3;12.7
45112;PMS5003;30873;53.908;27.576;2022-07-01T12:28:53;19.1;18.9;14.2
45112;PMS5003;30873;53.908;27.576;2022-07-01T12:33:51;23.9;22.2;16.5
45112;PMS5003;30873;53.908;27.576;2022-07-01T12:39:05;16.6;16;12.1
45112;PMS5003;30873;53.908;27.576;2022-07-01T12:43:50;15.8;15.6;12.2
45112;PMS5003;30873;53.908;27.576;2022-07-01T12:48:50;21;20;15.8
45112;PMS5003;30873;53.908;27.576;2022-07-01T12:53:50;16.4;16;12
45112;PMS5003;30873;53.908;27.576;2022-07-01T12:58:50;26.3;24.8;18.8
45112;PMS5003;30873;53.908;27.576;2022-07-01T13:03:50;16.7;16;12.2
45112;PMS5003;30873;53.908;27.576;2022-07-01T13:08:50;18;17.3;13.9
45112;PMS5003;30873;53.908;27.576;2022-07-01T13:13:50;16.2;15.5;12
45112;PMS5003;30873;53.908;27.576;2022-07-01T13:18:50;17;16.2;13.2
45112;PMS5003;30873;53.908;27.576;2022-07-01T13:23:50;14.3;13.8;11
45112;PMS5003;30873;53.908;27.576;2022-07-01T13:28:50;14.4;14.1;10.8
45112;PMS5003;30873;53.908;27.576;2022-07-01T13:33:50;14.3;14.2;10.7
45112;PMS5003;30873;53.908;27.576;2022-07-01T13:38:50;16;15.7;11.6
45112;PMS5003;30873;53.908;27.576;2022-07-01T13:43:50;15.1;14.7;11.8
45112;PMS5003;30873;53.908;27.576;2022-07-01T13:48:50;17.9;17.5;14.1
45112;PMS5003;30873;53.908;27.576;2022-07-01T13:53:50;17.2;16.5;12.9
45112;PMS5003;30873;53.908;27.576;2022-07-01T13:58:50;17;16.3;12.8
45112;PMS5003;30873;53.908;27.576;2022-07-01T14:03:50;16.9;16.6;13
45112;PMS5003;30873;53.908;27.576;2022-07-01T14:08:50;17.1;16.6;12.5
45112;PMS5003;30873;53.908;27.576;2022-07-01T14:13:50;18.2;17.7;13.7
45112;PMS5003;30873;53.908;27.576;2022-07-01T14:18:50;16.2;15.7;11.9
45112;PMS5003;30873;53.908;27.576;2022-07-01T14:23:50;16.7;16.4;12.7
45112;PMS5003;30873;53.908;27.576;2022-07-01T14:28:50;18.8;18.6;14.8
45112;PMS5003;30873;53.908;27.576;2022-07-01T14:33:50;15.2;14.6;11.2
45112;PMS5003;30873;53.908;27.576;2022-07-01T14:38:50;15.1;14.5;11.4
45112;PMS5003;30873;53.908;27.576;2022-07-01T14:43:50;14.7;14.3;11.4
45112;PMS5003;30873;53.908;27.576;2022-07-01T14:48:50;15.4;15.2;11.8
45112;PMS5003;30873;53.908;27.576;2022-07-01T14:53:50;17.3;16.6;13
45112;PMS5003;30873;53.908;27.576;2022-07-01T14:58:50;15.1;14.4;11.6
45112;PMS5003;30873;53.908;27.576;2022-07-01T15:03:50;14;13.3;10.4
45112;PMS5003;30873;53.908;27.576;2022-07-01T15:08:50;13.5;13.1;10.1
45112;PMS5003;30873;53.908;27.576;2022-07-01T15:13:50;11.9;11.8;9.7
45112;PMS5003;30873;53.908;27.576;2022-07-01T15:18:50;11.7;11.4;8.9
45112;PMS5003;30873;53.908;27.576;2022-07-01T15:23:50;12.7;12.1;9.5
45112;PMS5003;30873;53.908;27.576;2022-07-01T15:28:50;20.9;19;14.8
45112;PMS5003;30873;53.908;27.576;2022-07-01T15:33:50;11.6;11.3;9.1
45112;PMS5003;30873;53.908;27.576;2022-07-01T15:38:50;11.9;11.4;8.7
45112;PMS5003;30873;53.908;27.576;2022-07-01T15:43:50;11.4;11.1;9
45112;PMS5003;30873;53.908;27.576;2022-07-01T15:48:50;11.8;11.2;9.1
45112;PMS5003;30873;53.908;27.576;2022-07-01T15:53:50;12.6;12.2;9.7
45112;PMS5003;30873;53.908;27.576;2022-07-01T15:58:50;11.7;11;8.3
45112;PMS5003;30873;53.908;27.576;2022-07-01T16:03:50;12.4;12;8.9
45112;PMS5003;30873;53.908;27.576;2022-07-01T16:08:51;12.1;11.9;9.2
45112;PMS5003;30873;53.908;27.576;2022-07-01T16:13:51;12.4;12.2;9.5
45112;PMS5003;30873;53.908;27.576;2022-07-01T16:18:51;12.5;12;9.6
45112;PMS5003;30873;53.908;27.576;2022-07-01T16:23:51;12.8;12.1;9.7
45112;PMS5003;30873;53.908;27.576;2022-07-01T16:28:51;15.8;15.1;12.8
45112;PMS5003;30873;53.908;27.576;2022-07-01T16:33:50;13.4;13;10
45112;PMS5003;30873;53.908;27.576;2022-07-01T16:39:09;14;13.4;10.4
45112;PMS5003;30873;53.908;27.576;2022-07-01T16:43:51;12.9;12.4;9.7
45112;PMS5003;30873;53.908;27.576;2022-07-01T16:48:50;13.5;13.2;10.6
45112;PMS5003;30873;53.908;27.576;2022-07-01T16:53:50;13.2;12.9;10.3
45112;PMS5003;30873;53.908;27.576;2022-07-01T16:58:52;12.4;12.2;9.8
45112;PMS5003;30873;53.908;27.576;2022-07-01T17:03:50;12.8;12.2;10
45112;PMS5003;30873;53.908;27.576;2022-07-01T17:08:51;13.2;12.7;9.8
45112;PMS5003;30873;53.908;27.576;2022-07-01T17:13:50;12.3;12;9.5
45112;PMS5003;30873;53.908;27.576;2022-07-01T17:18:50;12.1;11.9;9.1
45112;PMS5003;30873;53.908;27.576;2022-07-01T17:23:52;12.9;11.9;9.2
45112;PMS5003;30873;53.908;27.576;2022-07-01T17:28:51;11.9;11.4;9.1
45112;PMS5003;30873;53.908;27.576;2022-07-01T17:33:51;11.6;11.3;8.7
45112;PMS5003;30873;53.908;27.576;2022-07-01T17:38:52;12.1;11.3;8.9
45112;PMS5003;30873;53.908;27.576;2022-07-01T17:43:54;11.8;11.5;8.8
45112;PMS5003;30873;53.908;27.576;2022-07-01T17:48:50;12.7;12.4;9.7
45112;PMS5003;30873;53.908;27.576;2022-07-01T17:53:50;12.4;12.1;9.6
45112;PMS5003;30873;53.908;27.576;2022-07-01T17:58:50;13.3;12.8;9.7
45112;PMS5003;30873;53.908;27.576;2022-07-01T18:03:50;13.7;12.7;10.3
45112;PMS5003;30873;53.908;27.576;2022-07-01T18:08:50;13.7;13.3;10.6
45112;PMS5003;30873;53.908;27.576;2022-07-01T18:14:02;12.9;12.4;9.9
45112;PMS5003;30873;53.908;27.576;2022-07-01T18:18:53;13.8;13.7;10.4
45112;PMS5003;30873;53.908;27.576;2022-07-01T18:23:50;16.7;16.3;13.2
45112;PMS5003;30873;53.908;27.576;2022-07-01T18:28:51;16.6;15.8;12
45112;PMS5003;30873;53.908;27.576;2022-07-01T18:34:09;15.2;14.4;11.4
45112;PMS5003;30873;53.908;27.576;2022-07-01T18:38:50;14.9;14.5;11.3
45112;PMS5003;30873;53.908;27.576;2022-07-01T18:43:50;15.1;14.4;11
45112;PMS5003;30873;53.908;27.576;2022-07-01T18:48:50;15.1;14.6;11
45112;PMS5003;30873;53.908;27.576;2022-07-01T18:53:50;14.7;13.8;11
45112;PMS5003;30873;53.908;27.576;2022-07-01T18:58:50;14.9;14.4;10.8
45112;PMS5003;30873;53.908;27.576;2022-07-01T19:03:50;15.4;14.9;11.6
45112;PMS5003;30873;53.908;27.576;2022-07-01T19:08:50;15.2;14.7;11.4
45112;PMS5003;30873;53.908;27.576;2022-07-01T19:13:50;16.6;15.6;12
45112;PMS5003;30873;53.908;27.576;2022-07-01T19:18:50;16.6;15.5;11.9
45112;PMS5003;30873;53.908;27.576;2022-07-01T19:23:50;18.5;17.5;12.6
45112;PMS5003;30873;53.908;27.576;2022-07-01T19:28:50;17.6;16.6;12.5
45112;PMS5003;30873;53.908;27.576;2022-07-01T19:33:50;17.7;16.7;12.7
45112;PMS5003;30873;53.908;27.576;2022-07-01T19:38:50;17.9;16.5;12.5
45112;PMS5003;30873;53.908;27.576;2022-07-01T19:43:50;17.3;16.5;12.6
45112;PMS5003;30873;53.908;27.576;2022-07-01T19:48:50;17;16.1;12.3
45112;PMS5003;30873;53.908;27.576;2022-07-01T19:53:50;17.9;16.1;12.6
45112;PMS5003;30873;53.908;27.576;2022-07-01T19:58:50;17.2;16.1;12.5
45112;PMS5003;30873;53.908;27.576;2022-07-01T20:03:50;17;16.5;12.6
45112;PMS5003;30873;53.908;27.576;2022-07-01T20:08:50;17.1;16.4;12.8
45112;PMS5003;30873;53.908;27.576;2022-07-01T20:13:50;17.6;16.5;12.3
45112;PMS5003;30873;53.908;27.576;2022-07-01T20:18:50;17.5;16.7;12.1
45112;PMS5003;30873;53.908;27.576;2022-07-01T20:23:50;16.8;15.7;12.2
45112;PMS5003;30873;53.908;27.576;2022-07-01T20:28:50;16.7;15.2;12
45112;PMS5003;30873;53.908;27.576;2022-07-01T20:33:50;16.9;16;12.2
45112;PMS5003;30873;53.908;27.576;2022-07-01T20:38:50;17.2;15.9;12
45112;PMS5003;30873;53.908;27.576;2022-07-01T20:43:50;16.4;15.3;11.4
45112;PMS5003;30873;53.908;27.576;2022-07-01T20:48:50;17.1;16.1;12
45112;PMS5003;30873;53.908;27.576;2022-07-01T20:53:50;16.7;15.8;12.1
45112;PMS5003;30873;53.908;27.576;2022-07-01T20:58:50;16.8;15.5;11.7
45112;PMS5003;30873;53.908;27.576;2022-07-01T21:03:50;16.4;15.5;11.6
45112;PMS5003;30873;53.908;27.576;2022-07-01T21:08:50;16.9;16.3;12
45112;PMS5003;30873;53.908;27.576;2022-07-01T21:13:50;16.2;14.9;11.5
45112;PMS5003;30873;53.908;27.576;2022-07-01T21:18:50;16.2;14.7;11.4
45112;PMS5003;30873;53.908;27.576;2022-07-01T21:23:51;15.1;14.5;10.8
45112;PMS5003;30873;53.908;27.576;2022-07-01T21:28:50;15.3;14.5;10.6
45112;PMS5003;30873;53.908;27.576;2022-07-01T21:33:50;15.5;14.5;11.2
45112;PMS5003;30873;53.908;27.576;2022-07-01T21:38:50;16.5;15.3;11.4
45112;PMS5003;30873;53.908;27.576;2022-07-01T21:43:50;15.6;15;11.2
45112;PMS5003;30873;53.908;27.576;2022-07-01T21:48:50;17;15.3;11.6
45112;PMS5003;30873;53.908;27.576;2022-07-01T21:53:50;17.9;16.3;11.9
45112;PMS5003;30873;53.908;27.576;2022-07-01T21:58:51;15.5;15;11.5
45112;PMS5003;30873;53.908;27.576;2022-07-01T22:03:50;19.2;17.9;12.6
45112;PMS5003;30873;53.908;27.576;2022-07-01T22:08:52;20.2;18.9;13.2
45112;PMS5003;30873;53.908;27.576;2022-07-01T22:14:06;18.6;17.9;12.9
45112;PMS5003;30873;53.908;27.576;2022-07-01T22:18:50;19;18.2;13
45112;PMS5003;30873;53.908;27.576;2022-07-01T22:23:50;19.5;18.1;13.1
45112;PMS5003;30873;53.908;27.576;2022-07-01T22:28:51;18.6;17.4;13.2
45112;PMS5003;30873;53.908;27.576;2022-07-01T22:33:51;18.5;17.6;12.4
45112;PMS5003;30873;53.908;27.576;2022-07-01T22:38:50;19.7;18.2;12.8
45112;PMS5003;30873;53.908;27.576;2022-07-01T22:43:51;18;17.4;13
45112;PMS5003;30873;53.908;27.576;2022-07-01T22:48:55;19.4;18;13
45112;PMS5003;30873;53.908;27.576;2022-07-01T22:53:50;19.2;17.7;13.5
45112;PMS5003;30873;53.908;27.576;2022-07-01T22:59:23;18.6;17.4;13.1
45112;PMS5003;30873;53.908;27.576;2022-07-01T23:03:50;18.2;17.4;13.7
45112;PMS5003;30873;53.908;27.576;2022-07-01T23:08:54;18.6;16.9;12.9
45112;PMS5003;30873;53.908;27.576;2022-07-01T23:13:52;19.6;18.1;13.3
45112;PMS5003;30873;53.908;27.576;2022-07-01T23:18:50;19.9;17.8;13.1
45112;PMS5003;30873;53.908;27.576;2022-07-01T23:23:50;19;17.8;13.8
45112;PMS5003;30873;53.908;27.576;2022-07-01T23:28:50;20.8;19.7;14.9
45112;PMS5003;30873;53.908;27.576;2022-07-01T23:33:51;19.3;18.1;13.7
45112;PMS5003;30873;53.908;27.576;2022-07-01T23:38:50;20;18.8;14.4
45112;PMS5003;30873;53.908;27.576;2022-07-01T23:43:50;21.8;19.9;15
45112;PMS5003;30873;53.908;27.576;2022-07-01T23:48:50;19.8;18.3;14.1
45112;PMS5003;30873;53.908;27.576;2022-07-01T23:53:50;19.5;18.7;14.2
45112;PMS5003;30873;53.908;27.576;2022-07-01T23:58:50;19.8;18.5;13.9
